Terminal Aerodrome Forecast
Issued by NWS

Current Version | Previous Version | Text Only | Print | Product List | Glossary On
Versions: 1 2 3 4 5 6 7 8 9 10 11 12
795
FTUS44 KTSA 262329
TAFRVS
TAF
KRVS 262329Z 2700/2724 08006KT P6SM VCTS SCT040CB BKN100
     FM270200 VRB03KT P6SM BKN150
      TEMPO 2709/2713 4SM BR
     FM271500 VRB03KT P6SM SCT035 BKN250
     FM272000 16005KT P6SM VCTS BKN050CB=

USA.gov is the U.S. government's official web portal to all federal, state and local government web resources and services.